PWSweather.com
Personal Weather Stations
Station Observations
PHMDWX
Perry Hall, MD 21236

Perry Hall, MD 21236

Lat: 39.418318, Lon: -76.490039

Elevation: 305

Station Type: Davis Vantage Pro

Latest ConditionsUpdated 9:30:17 PM EDT Monday, Sep 1, 2014
Currently Today's Max Today's Min Today's Average
Temperature 78.6°F25.9°C 84.9°F29.4°C 71.8°F22.1°C 78.0°F25.6°C
Dew Point 74.7°F23.7°C 76.8°F24.9°C 71.2°F21.8°C 74.0°F23.3°C
Winds Calm Calm 4.8 mph SE7.7 kmh SE - 0.8 mph 1.3 kmh
Wind Gusts -- 8.0 mph12.9 kmh - -
Humidity 88% 98% 73% 88%
Pressure 29.93 in1013.5 mb 30.00 in1015.9 mb 29.89 in1012.2 mb -
Precipitation - 0.07 in1.8 mm - -
Hour Temp Dew Point Humidity Winds Wind Gusts Pressure Precip Precip Rate Daily Precip Total
09:30 PM 78.6°F25.9°C 74.7°F23.7°C 88% Calm Calm -- 29.93 in1013.5 mb 0.00 in0.0 mm 0.00 in/hr0.0 mm/hr 0.07 in1.8 mm
09:00 PM 79.4°F26.3°C 74.8°F23.8°C 86% Calm Calm -- 29.91 in1012.9 mb 0.00 in0.0 mm 0.00 in/hr0.0 mm/hr 0.07 in1.8 mm
08:30 PM 79.6°F26.4°C 75.4°F24.1°C 87% Calm Calm -- 29.91 in1012.9 mb 0.00 in0.0 mm 0.00 in/hr0.0 mm/hr 0.07 in1.8 mm
08:00 PM 81.1°F27.3°C 76.2°F24.6°C 85% Calm Calm -- 29.91 in1012.9 mb 0.00 in0.0 mm 0.00 in/hr0.0 mm/hr 0.07 in1.8 mm
07:30 PM 83.2°F28.4°C 75.6°F24.2°C 78% 0.5 mph SE0.8 kmh SE 2.0 mph3.2 kmh 29.91 in1012.9 mb 0.00 in0.0 mm 0.00 in/hr0.0 mm/hr 0.07 in1.8 mm
07:00 PM 84.0°F28.9°C 75.6°F24.2°C 76% 3.8 mph SE6.1 kmh SE 6.0 mph9.7 kmh 29.91 in1012.9 mb 0.00 in0.0 mm 0.00 in/hr0.0 mm/hr 0.07 in1.8 mm
06:30 PM 84.3°F29.1°C 75.1°F23.9°C 74% 2.0 mph SE3.2 kmh SE 4.0 mph6.4 kmh 29.90 in1012.5 mb 0.00 in0.0 mm 0.00 in/hr0.0 mm/hr 0.07 in1.8 mm
06:00 PM 84.7°F29.3°C 75.5°F24.2°C 74% 3.0 mph SSE4.8 kmh SSE 4.0 mph6.4 kmh 29.89 in1012.2 mb 0.00 in0.0 mm 0.00 in/hr0.0 mm/hr 0.07 in1.8 mm
05:30 PM 84.9°F29.4°C 75.7°F24.3°C 74% 2.9 mph ESE4.7 kmh ESE 2.0 mph3.2 kmh 29.89 in1012.2 mb 0.00 in0.0 mm 0.00 in/hr0.0 mm/hr 0.07 in1.8 mm
05:00 PM 84.3°F29.1°C 76.3°F24.6°C 77% 1.9 mph E3.1 kmh E 6.0 mph9.7 kmh 29.91 in1012.9 mb 0.00 in0.0 mm 0.00 in/hr0.0 mm/hr 0.07 in1.8 mm
04:30 PM 83.4°F28.6°C 75.8°F24.3°C 78% 0.3 mph SE0.5 kmh SE 1.0 mph1.6 kmh 29.91 in1012.9 mb 0.00 in0.0 mm 0.00 in/hr0.0 mm/hr 0.07 in1.8 mm
04:00 PM 83.6°F28.7°C 76.8°F24.9°C 80% 0.2 mph ENE0.3 kmh ENE 2.0 mph3.2 kmh 29.91 in1012.9 mb 0.00 in0.0 mm 0.00 in/hr0.0 mm/hr 0.07 in1.8 mm
03:30 PM 84.1°F28.9°C 76.5°F24.7°C 78% 1.6 mph ESE2.6 kmh ESE 5.0 mph8.0 kmh 29.93 in1013.5 mb 0.00 in0.0 mm 0.00 in/hr0.0 mm/hr 0.07 in1.8 mm
03:00 PM 84.0°F28.9°C 75.2°F24.0°C 75% 1.5 mph E2.4 kmh E 1.0 mph1.6 kmh 29.93 in1013.5 mb 0.00 in0.0 mm 0.00 in/hr0.0 mm/hr 0.07 in1.8 mm
02:30 PM 83.0°F28.3°C 74.7°F23.7°C 76% 4.8 mph SE7.7 kmh SE 8.0 mph12.9 kmh 29.93 in1013.5 mb 0.00 in0.0 mm 0.00 in/hr0.0 mm/hr 0.07 in1.8 mm
02:00 PM 82.4°F28.0°C 76.0°F24.4°C 81% 1.2 mph NE1.9 kmh NE 3.0 mph4.8 kmh 29.93 in1013.5 mb 0.00 in0.0 mm 0.00 in/hr0.0 mm/hr 0.07 in1.8 mm
01:30 PM 83.2°F28.4°C 76.0°F24.4°C 79% 1.8 mph NE2.9 kmh NE 2.0 mph3.2 kmh 29.93 in1013.5 mb 0.00 in0.0 mm 0.00 in/hr0.0 mm/hr 0.07 in1.8 mm
01:00 PM 83.4°F28.6°C 75.0°F23.9°C 76% 3.1 mph E5.0 kmh E 3.0 mph4.8 kmh 29.94 in1013.9 mb 0.00 in0.0 mm 0.00 in/hr0.0 mm/hr 0.07 in1.8 mm
12:30 PM 83.6°F28.7°C 74.0°F23.3°C 73% 0.1 mph NE0.2 kmh NE 1.0 mph1.6 kmh 29.95 in1014.2 mb 0.00 in0.0 mm 0.00 in/hr0.0 mm/hr 0.07 in1.8 mm
12:00 PM 82.6°F28.1°C 73.5°F23.1°C 74% 1.1 mph NE1.8 kmh NE 1.0 mph1.6 kmh 29.96 in1014.6 mb 0.01 in0.3 mm 0.02 in/hr0.5 mm/hr 0.07 in1.8 mm
11:30 AM 81.2°F27.3°C 74.4°F23.6°C 80% 0.4 mph WNW0.6 kmh WNW 2.0 mph3.2 kmh 29.97 in1014.9 mb 0.00 in0.0 mm 0.00 in/hr0.0 mm/hr 0.06 in1.5 mm
11:00 AM 79.4°F26.3°C 74.5°F23.6°C 85% 0.6 mph NNW1.0 kmh NNW 1.0 mph1.6 kmh 29.97 in1014.9 mb 0.00 in0.0 mm 0.00 in/hr0.0 mm/hr 0.06 in1.5 mm
10:30 AM 77.0°F25.0°C 74.8°F23.8°C 93% 0.1 mph NE0.2 kmh NE 1.0 mph1.6 kmh 29.98 in1015.2 mb 0.00 in0.0 mm 0.00 in/hr0.0 mm/hr 0.06 in1.5 mm
10:00 AM 75.8°F24.3°C 75.2°F24.0°C 98% 0.5 mph S0.8 kmh S 1.0 mph1.6 kmh 29.98 in1015.2 mb 0.00 in0.0 mm 0.00 in/hr0.0 mm/hr 0.06 in1.5 mm
09:30 AM 75.0°F23.9°C 74.4°F23.6°C 98% 0.8 mph SSE1.3 kmh SSE 2.0 mph3.2 kmh 29.98 in1015.2 mb 0.00 in0.0 mm 0.00 in/hr0.0 mm/hr 0.06 in1.5 mm
09:00 AM 74.4°F23.6°C 73.8°F23.2°C 98% 0.1 mph SSE0.2 kmh SSE -- 29.99 in1015.6 mb 0.00 in0.0 mm 0.00 in/hr0.0 mm/hr 0.06 in1.5 mm
08:30 AM 74.0°F23.3°C 73.4°F23.0°C 98% 1.9 mph SE3.1 kmh SE 6.0 mph9.7 kmh 29.99 in1015.6 mb 0.00 in0.0 mm 0.00 in/hr0.0 mm/hr 0.06 in1.5 mm
08:00 AM 73.5°F23.1°C 72.9°F22.7°C 98% Calm Calm -- 29.99 in1015.6 mb 0.00 in0.0 mm 0.00 in/hr0.0 mm/hr 0.06 in1.5 mm
07:30 AM 72.7°F22.6°C 72.1°F22.3°C 98% Calm Calm -- 30.00 in1015.9 mb 0.00 in0.0 mm 0.00 in/hr0.0 mm/hr 0.06 in1.5 mm
07:00 AM 71.8°F22.1°C 71.2°F21.8°C 98% Calm Calm -- 29.99 in1015.6 mb 0.00 in0.0 mm 0.00 in/hr0.0 mm/hr 0.06 in1.5 mm
06:30 AM 71.8°F22.1°C 71.2°F21.8°C 98% Calm Calm -- 29.98 in1015.2 mb 0.00 in0.0 mm 0.00 in/hr0.0 mm/hr 0.06 in1.5 mm
06:00 AM 72.1°F22.3°C 71.5°F21.9°C 98% Calm Calm -- 29.98 in1015.2 mb 0.00 in0.0 mm 0.00 in/hr0.0 mm/hr 0.06 in1.5 mm
05:30 AM 72.1°F22.3°C 71.5°F21.9°C 98% Calm Calm -- 29.98 in1015.2 mb 0.00 in0.0 mm 0.00 in/hr0.0 mm/hr 0.06 in1.5 mm
05:00 AM 72.5°F22.5°C 71.9°F22.2°C 98% 0.5 mph SE0.8 kmh SE 1.0 mph1.6 kmh 29.97 in1014.9 mb 0.00 in0.0 mm 0.00 in/hr0.0 mm/hr 0.06 in1.5 mm
04:30 AM 72.5°F22.5°C 71.9°F22.2°C 98% Calm Calm -- 29.96 in1014.6 mb 0.00 in0.0 mm 0.00 in/hr0.0 mm/hr 0.06 in1.5 mm
04:00 AM 72.7°F22.6°C 72.1°F22.3°C 98% Calm Calm -- 29.96 in1014.6 mb 0.00 in0.0 mm 0.00 in/hr0.0 mm/hr 0.06 in1.5 mm
03:30 AM 72.8°F22.7°C 72.2°F22.3°C 98% Calm Calm -- 29.97 in1014.9 mb 0.00 in0.0 mm 0.00 in/hr0.0 mm/hr 0.06 in1.5 mm
03:00 AM 73.0°F22.8°C 72.4°F22.4°C 98% Calm Calm -- 29.97 in1014.9 mb 0.00 in0.0 mm 0.00 in/hr0.0 mm/hr 0.06 in1.5 mm
02:30 AM 73.2°F22.9°C 72.6°F22.6°C 98% Calm Calm -- 29.96 in1014.6 mb 0.00 in0.0 mm 0.00 in/hr0.0 mm/hr 0.06 in1.5 mm
02:00 AM 73.3°F22.9°C 72.7°F22.6°C 98% Calm Calm -- 29.97 in1014.9 mb 0.00 in0.0 mm 0.00 in/hr0.0 mm/hr 0.06 in1.5 mm
01:30 AM 73.5°F23.1°C 72.6°F22.6°C 97% 0.2 mph SE0.3 kmh SE -- 29.96 in1014.6 mb 0.00 in0.0 mm 0.00 in/hr0.0 mm/hr 0.06 in1.5 mm
01:00 AM 73.7°F23.2°C 72.8°F22.7°C 97% 0.1 mph SE0.2 kmh SE -- 29.98 in1015.2 mb 0.05 in1.3 mm 0.10 in/hr2.5 mm/hr 0.06 in1.5 mm
12:30 AM 74.0°F23.3°C 73.1°F22.8°C 97% Calm Calm -- 29.98 in1015.2 mb 0.02 in0.5 mm 0.04 in/hr1.0 mm/hr 0.02 in0.5 mm
12:00 AM 74.2°F23.4°C 73.3°F22.9°C 97% Calm Calm 1.0 mph1.6 kmh 29.98 in1015.2 mb 0.03 in0.8 mm 0.00 in/hr0.0 mm/hr 0.03 in0.8 mm